createdAt,value
2022-11-24T00:00:04.058Z,99447.09
2022-11-24T00:02:33.718Z,99458.91
2022-11-24T00:05:03.365Z,99456.59
2022-11-24T00:07:32.920Z,99453.91
2022-11-24T00:10:05.305Z,99451.19
2022-11-24T00:12:34.840Z,99447.69
2022-11-24T00:15:04.653Z,99454.38
2022-11-24T00:17:34.830Z,99451.16
2022-11-24T00:20:04.365Z,99461.41
2022-11-24T00:22:33.971Z,99466.81
2022-11-24T00:25:06.913Z,99474.69
2022-11-24T00:27:36.633Z,99475.84
2022-11-24T00:30:06.476Z,99475.03
2022-11-24T00:32:35.990Z,99492.28
2022-11-24T00:35:05.617Z,99488.22
2022-11-24T00:37:35.222Z,99489.13
2022-11-24T00:40:08.471Z,99498.53
2022-11-24T00:42:37.955Z,99494.78
2022-11-24T00:45:13.948Z,99501.53
2022-11-24T00:47:43.805Z,99508.78
2022-11-24T00:50:13.693Z,99510.75
2022-11-24T00:52:43.213Z,99516.03
2022-11-24T00:55:15.290Z,99521.16
2022-11-24T00:57:44.748Z,99511.78
2022-11-24T01:00:15.573Z,99525.38
2022-11-24T01:02:45.228Z,99522.66
2022-11-24T01:05:14.776Z,99515.16
2022-11-24T01:07:44.508Z,99529.75
2022-11-24T01:10:16.699Z,99537.59
2022-11-24T01:12:46.221Z,99532.88
2022-11-24T01:15:15.728Z,99526.22
2022-11-24T01:17:45.276Z,99532.13
2022-11-24T01:20:15.821Z,99545.53
2022-11-24T01:22:45.468Z,99533.34
2022-11-24T01:25:17.655Z,99540.00
2022-11-24T01:27:47.274Z,99547.03
2022-11-24T01:30:16.907Z,99551.00
2022-11-24T01:32:46.457Z,99553.75
2022-11-24T01:35:15.985Z,99553.31
2022-11-24T01:37:45.514Z,99551.38
2022-11-24T01:40:17.889Z,99548.13
2022-11-24T01:42:51.572Z,99553.75
2022-11-24T01:45:35.908Z,99559.28
2022-11-24T01:48:09.016Z,99550.16
2022-11-24T01:50:41.735Z,99555.66
2022-11-24T01:53:12.360Z,99563.25
2022-11-24T01:55:44.667Z,99565.25
2022-11-24T01:58:17.575Z,99544.72
2022-11-24T02:00:48.818Z,99557.34
2022-11-24T02:03:23.235Z,99561.66
2022-11-24T02:05:56.879Z,99565.34
2022-11-24T02:08:32.129Z,99560.66
2022-11-24T02:11:07.097Z,99563.78
2022-11-24T02:13:39.160Z,99559.09
2022-11-24T02:16:11.173Z,99561.94
2022-11-24T02:18:42.410Z,99559.94
2022-11-24T02:21:13.857Z,99572.50
2022-11-24T02:23:50.295Z,99572.25
2022-11-24T02:26:32.167Z,99569.56
2022-11-24T02:29:02.459Z,99569.25
2022-11-24T02:31:32.234Z,99575.53
2022-11-24T02:34:02.007Z,99577.13
2022-11-24T02:36:31.603Z,99576.00
2022-11-24T02:39:01.156Z,99568.50
2022-11-24T02:41:33.415Z,99576.41
2022-11-24T02:44:04.900Z,99577.56
2022-11-24T02:46:34.465Z,99578.00
2022-11-24T02:49:04.008Z,99580.06
2022-11-24T02:51:34.477Z,99579.28
2022-11-24T02:54:04.123Z,99571.41
2022-11-24T02:56:36.291Z,99574.94
2022-11-24T02:59:05.883Z,99576.31
2022-11-24T03:01:35.474Z,99581.50
2022-11-24T03:04:05.268Z,99581.09
2022-11-24T03:06:34.858Z,99581.59
2022-11-24T03:09:04.511Z,99588.31
2022-11-24T03:11:36.619Z,99584.84
2022-11-24T03:14:06.692Z,99590.81
2022-11-24T03:16:36.876Z,99589.69
2022-11-24T03:19:07.019Z,99598.41
2022-11-24T03:21:38.585Z,99596.34
2022-11-24T03:24:11.959Z,99597.94
2022-11-24T03:26:44.641Z,99595.13
2022-11-24T03:29:14.216Z,99603.06
2022-11-24T03:31:43.757Z,99593.97
2022-11-24T03:34:13.644Z,99601.81
2022-11-24T03:36:43.311Z,99601.09
2022-11-24T03:39:12.999Z,99600.25
2022-11-24T03:41:45.217Z,99604.56
2022-11-24T03:44:14.735Z,99609.25
2022-11-24T03:46:44.436Z,99605.31
2022-11-24T03:49:14.003Z,99595.50
2022-11-24T03:51:43.506Z,99612.13
2022-11-24T03:54:13.056Z,99616.06
2022-11-24T03:56:45.409Z,99623.50
2022-11-24T03:59:14.928Z,99613.28
2022-11-24T04:01:44.535Z,99621.63
2022-11-24T04:04:14.371Z,99622.03
2022-11-24T04:06:43.965Z,99622.47
2022-11-24T04:09:13.513Z,99633.81
2022-11-24T04:11:58.123Z,99633.84
2022-11-24T04:14:27.603Z,99630.19
2022-11-24T04:16:57.140Z,99634.81
2022-11-24T04:19:26.670Z,99639.13
2022-11-24T04:21:56.252Z,99640.78
2022-11-24T04:24:25.772Z,99641.94
2022-11-24T04:26:57.895Z,99642.72
2022-11-24T04:29:27.376Z,99646.00
2022-11-24T04:31:56.966Z,99646.84
2022-11-24T04:34:26.472Z,99640.94
2022-11-24T04:36:55.958Z,99651.56
2022-11-24T04:39:28.545Z,99653.16
2022-11-24T04:42:01.133Z,99652.31
2022-11-24T04:44:30.723Z,99665.63
2022-11-24T04:47:01.085Z,99661.88
2022-11-24T04:49:30.790Z,99656.63
2022-11-24T04:52:00.463Z,99660.69
2022-11-24T04:54:29.984Z,99665.28
2022-11-24T04:57:02.097Z,99676.41
2022-11-24T04:59:31.704Z,99678.41
2022-11-24T05:02:01.333Z,99665.19
2022-11-24T05:04:31.117Z,99679.16
2022-11-24T05:07:00.687Z,99687.13
2022-11-24T05:09:48.240Z,99677.19
2022-11-24T05:12:19.823Z,99685.13
2022-11-24T05:14:49.316Z,99680.91
2022-11-24T05:17:18.955Z,99679.59
2022-11-24T05:19:48.490Z,99693.88
2022-11-24T05:22:18.021Z,99689.50
2022-11-24T05:24:47.545Z,99694.50
2022-11-24T05:27:16.985Z,99702.16
2022-11-24T05:29:49.264Z,99713.75
2022-11-24T05:32:19.001Z,99691.63
2022-11-24T05:34:48.907Z,99705.94
2022-11-24T05:37:18.453Z,99712.25
2022-11-24T05:39:48.077Z,99706.53
2022-11-24T05:42:30.156Z,99705.84
2022-11-24T05:45:02.533Z,99707.13
2022-11-24T05:47:32.096Z,99720.22
2022-11-24T05:50:01.636Z,99723.81
2022-11-24T05:52:31.395Z,99716.78
2022-11-24T05:55:00.909Z,99725.47
2022-11-24T05:57:30.743Z,99728.34
2022-11-24T06:00:03.982Z,99725.59
2022-11-24T06:02:33.545Z,99733.50
2022-11-24T06:05:03.168Z,99723.31
2022-11-24T06:07:32.775Z,99725.31
2022-11-24T06:10:02.331Z,99738.19
2022-11-24T06:12:31.828Z,99736.53
2022-11-24T06:15:04.148Z,99732.34
2022-11-24T06:17:33.651Z,99743.72
2022-11-24T06:20:03.300Z,99729.03
2022-11-24T06:22:32.828Z,99738.91
2022-11-24T06:25:02.346Z,99744.00
2022-11-24T06:27:32.493Z,99754.19
2022-11-24T06:30:04.770Z,99750.75
2022-11-24T06:32:34.399Z,99754.66
2022-11-24T06:35:03.924Z,99757.09
2022-11-24T06:37:33.521Z,99755.94
2022-11-24T06:40:03.057Z,99749.50
2022-11-24T06:42:32.567Z,99755.03
2022-11-24T06:45:08.715Z,99752.59
2022-11-24T06:47:39.039Z,99750.66
2022-11-24T06:50:10.775Z,99751.44
2022-11-24T06:52:40.323Z,99750.28
2022-11-24T06:55:11.114Z,99753.03
2022-11-24T06:57:40.598Z,99756.09
2022-11-24T07:00:14.129Z,99765.22
2022-11-24T07:02:46.129Z,99764.38
2022-11-24T07:05:16.081Z,99771.31
2022-11-24T07:07:45.651Z,99781.81
2022-11-24T07:10:15.241Z,99787.03
2022-11-24T07:12:44.791Z,99786.34
2022-11-24T07:15:16.998Z,99790.63
2022-11-24T07:17:46.559Z,99798.19
2022-11-24T07:20:16.081Z,99797.03
2022-11-24T07:22:45.589Z,99798.19
2022-11-24T07:25:15.439Z,99795.84
2022-11-24T07:27:44.917Z,99804.56
2022-11-24T07:30:17.527Z,99801.44
2022-11-24T07:32:47.016Z,99805.03
2022-11-24T07:35:16.572Z,99798.69
2022-11-24T07:37:46.214Z,99800.31
2022-11-24T07:40:15.907Z,99811.00
2022-11-24T07:42:45.358Z,99810.75
2022-11-24T07:45:17.636Z,99823.81
2022-11-24T07:47:47.248Z,99820.63
2022-11-24T07:50:16.841Z,99798.63
2022-11-24T07:52:46.391Z,99812.50
2022-11-24T07:55:15.962Z,99833.41
2022-11-24T07:57:45.506Z,99825.13
2022-11-24T08:00:18.149Z,99833.81
2022-11-24T08:02:47.694Z,99834.63
2022-11-24T08:05:17.320Z,99834.94
2022-11-24T08:07:46.956Z,99836.94
2022-11-24T08:10:17.768Z,99838.59
2022-11-24T08:12:47.580Z,99848.44
2022-11-24T08:15:20.251Z,99849.34
2022-11-24T08:17:49.866Z,99835.97
2022-11-24T08:20:20.017Z,99839.56
2022-11-24T08:22:49.601Z,99840.00
2022-11-24T08:25:19.340Z,99853.09
2022-11-24T08:27:48.824Z,99850.31
2022-11-24T08:30:21.340Z,99856.88
2022-11-24T08:32:50.822Z,99863.97
2022-11-24T08:35:20.478Z,99862.47
2022-11-24T08:37:50.068Z,99861.13
2022-11-24T08:40:20.267Z,99861.97
2022-11-24T08:42:50.099Z,99865.53
2022-11-24T08:45:25.581Z,99873.03
2022-11-24T08:47:56.504Z,99871.09
2022-11-24T08:50:27.200Z,99882.53
2022-11-24T08:52:56.804Z,99889.59
2022-11-24T08:55:26.369Z,99886.91
2022-11-24T08:57:55.898Z,99893.22
2022-11-24T09:00:28.179Z,99895.66
2022-11-24T09:02:59.602Z,99903.53
2022-11-24T09:05:51.231Z,99902.00
2022-11-24T09:08:18.754Z,99887.47
2022-11-24T09:10:48.316Z,99900.88
2022-11-24T09:13:17.889Z,99902.78
2022-11-24T09:15:50.048Z,99908.50
2022-11-24T09:18:19.512Z,99907.78
2022-11-24T09:20:49.109Z,99904.72
2022-11-24T09:23:18.633Z,99898.56
2022-11-24T09:25:48.128Z,99915.78
2022-11-24T09:28:17.632Z,99904.41
2022-11-24T09:30:47.274Z,99916.41
2022-11-24T09:33:19.542Z,99909.63
2022-11-24T09:35:52.659Z,99917.91
2022-11-24T09:38:22.760Z,99908.03
2022-11-24T09:40:52.452Z,99910.69
2022-11-24T09:43:35.337Z,99918.94
2022-11-24T09:46:10.635Z,99908.75
2022-11-24T09:48:45.162Z,99913.84
2022-11-24T09:51:17.942Z,99915.94
2022-11-24T09:53:55.202Z,99918.47
2022-11-24T09:56:27.649Z,99909.06
2022-11-24T09:59:02.789Z,99901.53
2022-11-24T10:01:34.466Z,99911.25
2022-11-24T10:04:14.045Z,99903.06
2022-11-24T10:06:48.691Z,99915.50
2022-11-24T10:09:40.975Z,99921.34
2022-11-24T10:12:25.926Z,99904.50
2022-11-24T10:15:09.092Z,99925.59
2022-11-24T10:18:09.350Z,99931.59
2022-11-24T10:20:55.165Z,99935.97
2022-11-24T10:23:41.149Z,99925.66
2022-11-24T10:26:19.329Z,99935.19
2022-11-24T10:28:55.258Z,99933.19
2022-11-24T10:31:32.503Z,99941.09
2022-11-24T10:34:06.772Z,99931.97
2022-11-24T10:36:47.897Z,99928.75
2022-11-24T10:39:24.010Z,99934.09
2022-11-24T10:42:03.080Z,99930.28
2022-11-24T10:44:32.846Z,99933.38
2022-11-24T10:47:02.867Z,99942.00
2022-11-24T10:49:35.730Z,99945.59
2022-11-24T10:52:15.941Z,99937.56
2022-11-24T10:54:57.690Z,99941.47
2022-11-24T10:57:32.512Z,99940.28
2022-11-24T11:00:02.349Z,99937.19
2022-11-24T11:02:38.709Z,99954.56
2022-11-24T11:05:38.098Z,99954.94
2022-11-24T11:08:28.026Z,99949.41
2022-11-24T11:11:22.201Z,99944.25
2022-11-24T11:14:01.523Z,99950.16
2022-11-24T11:16:38.143Z,99948.56
2022-11-24T11:22:27.206Z,99949.03
2022-11-24T11:25:17.211Z,99951.41
2022-11-24T11:27:48.440Z,99934.44
2022-11-24T11:36:17.396Z,99950.19
2022-11-24T11:38:49.928Z,99951.19
2022-11-24T11:41:31.113Z,99946.75
2022-11-24T11:44:30.298Z,99955.25
2022-11-24T11:47:01.812Z,99958.16
2022-11-24T11:49:31.504Z,99962.47
2022-11-24T11:52:26.010Z,99964.47
2022-11-24T11:55:19.203Z,99971.41
2022-11-24T11:58:00.663Z,99971.91
2022-11-24T12:00:32.750Z,99972.72
2022-11-24T12:03:26.728Z,99971.94
2022-11-24T12:06:05.550Z,99972.38
2022-11-24T12:09:18.636Z,99977.91
2022-11-24T12:11:45.806Z,99984.63
2022-11-24T12:14:33.185Z,99985.81
2022-11-24T12:17:13.427Z,99984.22
2022-11-24T12:20:00.909Z,99977.91
2022-11-24T12:22:43.469Z,99997.66
2022-11-24T12:25:26.476Z,99998.47
2022-11-24T12:28:08.645Z,99987.03
2022-11-24T12:30:51.140Z,99984.19
2022-11-24T12:33:40.305Z,99987.19
2022-11-24T12:36:19.292Z,99981.72
2022-11-24T12:38:57.470Z,99987.47
2022-11-24T12:41:57.677Z,99991.22
2022-11-24T12:44:55.332Z,99990.34
2022-11-24T12:47:36.350Z,99996.44
2022-11-24T12:50:12.459Z,100003.88
2022-11-24T12:52:47.004Z,99998.06
2022-11-24T12:55:22.161Z,100008.75
2022-11-24T12:58:04.001Z,100004.63
2022-11-24T13:00:50.797Z,100012.94
2022-11-24T13:03:35.300Z,100007.06
2022-11-24T13:06:14.027Z,100019.56
2022-11-24T13:08:44.434Z,100023.34
2022-11-24T13:11:32.379Z,100020.59
2022-11-24T13:14:03.240Z,100029.28
2022-11-24T13:16:40.830Z,100033.66
2022-11-24T13:19:23.572Z,100031.28
2022-11-24T13:22:18.720Z,100037.22
2022-11-24T13:24:48.255Z,100037.13
2022-11-24T13:27:30.758Z,100031.84
2022-11-24T13:30:00.258Z,100036.66
2022-11-24T13:33:02.623Z,100043.09
2022-11-24T13:35:34.848Z,100037.97
2022-11-24T13:38:05.496Z,100043.94
2022-11-24T13:41:06.300Z,100044.34
2022-11-24T13:43:34.565Z,100047.91
2022-11-24T13:46:04.165Z,100049.91
2022-11-24T13:48:56.240Z,100050.66
2022-11-24T13:51:28.978Z,100058.59
2022-11-24T13:54:01.116Z,100060.56
2022-11-24T13:56:32.972Z,100065.72
2022-11-24T13:59:05.526Z,100061.72
2022-11-24T14:01:40.863Z,100069.63
2022-11-24T14:04:33.537Z,100068.84
2022-11-24T14:07:09.861Z,100069.19
2022-11-24T14:09:45.085Z,100081.06
2022-11-24T14:12:20.429Z,100077.88
2022-11-24T14:14:52.053Z,100082.59
2022-11-24T14:17:24.094Z,100079.00
2022-11-24T14:19:54.629Z,100084.19
2022-11-24T14:22:29.299Z,100083.41
2022-11-24T14:25:01.027Z,100087.34
2022-11-24T14:27:36.968Z,100094.78
2022-11-24T14:30:19.713Z,100088.50
2022-11-24T14:32:57.491Z,100097.94
2022-11-24T14:35:29.402Z,100102.69
2022-11-24T14:38:01.930Z,100101.88
2022-11-24T14:40:43.519Z,100106.56
2022-11-24T14:43:25.125Z,100119.97
2022-11-24T14:45:57.673Z,100122.31
2022-11-24T14:48:34.383Z,100121.94
2022-11-24T14:51:17.284Z,100130.56
2022-11-24T14:53:53.772Z,100135.69
2022-11-24T14:56:27.380Z,100143.97
2022-11-24T14:58:58.195Z,100142.41
2022-11-24T15:01:36.545Z,100140.06
2022-11-24T15:04:38.956Z,100136.81
2022-11-24T15:07:16.254Z,100151.81
2022-11-24T15:09:58.031Z,100149.31
2022-11-24T15:12:34.364Z,100146.09
2022-11-24T15:15:05.736Z,100155.88
2022-11-24T15:17:36.422Z,100156.22
2022-11-24T15:20:12.408Z,100160.91
2022-11-24T15:22:44.294Z,100162.44
2022-11-24T15:25:32.527Z,100174.28
2022-11-24T15:28:02.527Z,100171.06
2022-11-24T15:30:32.667Z,100174.59
2022-11-24T15:33:02.694Z,100166.28
2022-11-24T15:35:35.128Z,100172.94
2022-11-24T15:38:07.513Z,100171.84
2022-11-24T15:40:40.058Z,100188.38
2022-11-24T15:43:21.916Z,100181.91
2022-11-24T15:45:51.557Z,100177.56
2022-11-24T15:48:21.126Z,100181.22
2022-11-24T15:50:51.582Z,100181.22
2022-11-24T15:53:24.244Z,100175.31
2022-11-24T15:55:58.041Z,100185.50
2022-11-24T15:58:27.699Z,100181.06
2022-11-24T16:00:57.427Z,100179.06
2022-11-24T16:06:25.106Z,100189.34
2022-11-24T16:08:55.134Z,100190.47
2022-11-24T16:11:27.633Z,100180.69
2022-11-24T16:13:57.538Z,100180.19
2022-11-24T16:16:27.310Z,100181.31
2022-11-24T16:18:57.062Z,100185.69
2022-11-24T16:21:26.809Z,100163.81
2022-11-24T16:23:57.442Z,100172.47
2022-11-24T16:26:29.844Z,100193.53
2022-11-24T16:28:59.430Z,100191.59
2022-11-24T16:31:29.140Z,100191.88
2022-11-24T16:33:58.674Z,100200.06
2022-11-24T16:36:28.503Z,100198.44
2022-11-24T16:38:58.249Z,100216.44
2022-11-24T16:41:30.427Z,100218.13
2022-11-24T16:44:00.259Z,100223.97
2022-11-24T16:46:29.849Z,100227.91
2022-11-24T16:49:03.715Z,100230.88
2022-11-24T16:51:35.092Z,100230.56
2022-11-24T16:54:06.039Z,100223.03
2022-11-24T16:56:38.167Z,100231.84
2022-11-24T16:59:08.202Z,100225.97
2022-11-24T17:01:40.194Z,100231.50
2022-11-24T17:04:12.828Z,100236.13
2022-11-24T17:06:45.593Z,100240.97
2022-11-24T17:09:15.319Z,100244.94
2022-11-24T17:11:48.156Z,100242.97
2022-11-24T17:14:17.847Z,100241.50
2022-11-24T17:16:47.436Z,100249.44
2022-11-24T17:19:16.989Z,100232.75
2022-11-24T17:21:46.575Z,100240.34
2022-11-24T17:24:18.236Z,100253.69
2022-11-24T17:26:52.112Z,100251.97
2022-11-24T17:29:21.988Z,100260.75
2022-11-24T17:31:51.558Z,100255.56
2022-11-24T17:34:21.268Z,100255.78
2022-11-24T17:36:50.904Z,100255.44
2022-11-24T17:39:25.183Z,100260.06
2022-11-24T17:41:57.453Z,100267.72
2022-11-24T17:44:27.051Z,100264.47
2022-11-24T17:46:57.720Z,100257.69
2022-11-24T17:49:27.390Z,100263.09
2022-11-24T17:51:56.913Z,100271.69
2022-11-24T17:57:18.783Z,100273.41
2022-11-24T17:59:48.353Z,100282.34
2022-11-24T18:02:18.077Z,100275.69
2022-11-24T18:04:47.753Z,100272.53
2022-11-24T18:07:17.368Z,100290.63
2022-11-24T18:09:47.079Z,100276.69
2022-11-24T18:12:20.018Z,100286.31
2022-11-24T18:14:49.616Z,100295.56
2022-11-24T18:17:19.187Z,100296.41
2022-11-24T18:19:49.010Z,100302.09
2022-11-24T18:22:20.961Z,100307.91
2022-11-24T18:24:56.879Z,100299.09
2022-11-24T18:27:29.250Z,100302.16
2022-11-24T18:29:58.968Z,100310.72
2022-11-24T18:32:28.554Z,100311.41
2022-11-24T18:34:58.107Z,100311.50
2022-11-24T18:37:27.743Z,100303.59
2022-11-24T18:39:57.461Z,100308.13
2022-11-24T18:42:31.285Z,100308.56
2022-11-24T18:45:01.038Z,100315.25
2022-11-24T18:47:30.532Z,100318.44
2022-11-24T18:50:00.563Z,100319.38
2022-11-24T18:52:30.142Z,100314.31
2022-11-24T18:55:03.985Z,100311.94
2022-11-24T18:57:38.355Z,100309.63
2022-11-24T19:00:09.737Z,100309.31
2022-11-24T19:02:39.481Z,100310.22
2022-11-24T19:05:09.380Z,100305.22
2022-11-24T19:07:39.049Z,100311.03
2022-11-24T19:10:10.273Z,100316.84
2022-11-24T19:12:42.495Z,100314.38
2022-11-24T19:15:12.900Z,100316.59
2022-11-24T19:17:45.160Z,100311.53
2022-11-24T19:20:16.995Z,100314.28
2022-11-24T19:22:46.625Z,100311.53
2022-11-24T19:25:16.164Z,100311.88
2022-11-24T19:27:48.222Z,100319.00
2022-11-24T19:30:18.287Z,100322.00
2022-11-24T19:32:48.014Z,100309.63
2022-11-24T19:35:17.676Z,100324.88
2022-11-24T19:37:47.122Z,100331.19
2022-11-24T19:40:17.593Z,100330.06
2022-11-24T19:42:49.722Z,100326.16
2022-11-24T19:45:19.267Z,100337.16
2022-11-24T19:47:48.871Z,100343.81
2022-11-24T19:50:18.572Z,100343.53
2022-11-24T19:52:49.309Z,100348.59
2022-11-24T19:55:18.852Z,100345.28
2022-11-24T19:57:51.030Z,100344.75
2022-11-24T20:00:21.262Z,100354.63
2022-11-24T20:02:51.058Z,100355.75
2022-11-24T20:05:20.620Z,100348.47
2022-11-24T20:07:50.122Z,100352.81
2022-11-24T20:10:19.897Z,100360.84
2022-11-24T20:12:52.253Z,100361.47
2022-11-24T20:15:21.896Z,100357.13
2022-11-24T20:17:52.595Z,100354.66
2022-11-24T20:20:22.249Z,100356.53
2022-11-24T20:22:51.779Z,100350.59
2022-11-24T20:25:21.354Z,100349.75
2022-11-24T20:27:53.441Z,100359.50
2022-11-24T20:30:23.170Z,100362.59
2022-11-24T20:32:52.772Z,100360.28
2022-11-24T20:35:22.449Z,100354.88
2022-11-24T20:37:53.381Z,100363.25
2022-11-24T20:40:22.904Z,100369.88
2022-11-24T20:42:55.019Z,100368.28
2022-11-24T20:45:24.619Z,100369.38
2022-11-24T20:47:54.241Z,100371.69
2022-11-24T20:50:23.776Z,100369.63
2022-11-24T20:52:53.255Z,100366.47
2022-11-24T20:55:22.909Z,100370.28
2022-11-24T20:57:55.322Z,100362.47
2022-11-24T21:00:24.983Z,100373.72
2022-11-24T21:02:57.642Z,100371.63
2022-11-24T21:05:27.122Z,100377.00
2022-11-24T21:07:56.931Z,100381.97
2022-11-24T21:10:26.647Z,100373.56
2022-11-24T21:12:58.870Z,100375.97
2022-11-24T21:15:28.491Z,100384.38
2022-11-24T21:17:58.263Z,100381.34
2022-11-24T21:20:27.912Z,100371.81
2022-11-24T21:22:58.307Z,100393.06
2022-11-24T21:25:27.843Z,100388.72
2022-11-24T21:28:00.358Z,100394.94
2022-11-24T21:30:30.117Z,100392.88
2022-11-24T21:33:00.249Z,100395.53
2022-11-24T21:35:29.876Z,100400.44
2022-11-24T21:37:59.609Z,100400.59
2022-11-24T21:40:30.971Z,100390.69
2022-11-24T21:43:03.609Z,100389.34
2022-11-24T21:45:33.386Z,100394.91
2022-11-24T21:48:03.474Z,100404.41
2022-11-24T21:50:33.283Z,100405.72
2022-11-24T21:53:03.697Z,100405.56
2022-11-24T21:55:33.405Z,100405.81
2022-11-24T21:58:08.775Z,100405.88
2022-11-24T22:00:38.398Z,100412.28
2022-11-24T22:03:07.923Z,100416.34
2022-11-24T22:05:37.440Z,100424.81
2022-11-24T22:08:07.206Z,100411.81
2022-11-24T22:10:36.751Z,100420.84
2022-11-24T22:13:08.879Z,100413.75
2022-11-24T22:15:38.558Z,100404.28
2022-11-24T22:18:08.337Z,100418.69
2022-11-24T22:20:38.234Z,100415.53
2022-11-24T22:23:08.141Z,100426.13
2022-11-24T22:25:37.822Z,100422.25
2022-11-24T22:28:09.961Z,100431.38
2022-11-24T22:30:39.484Z,100422.59
2022-11-24T22:33:09.017Z,100429.69
2022-11-24T22:35:38.567Z,100417.25
2022-11-24T22:38:08.106Z,100418.84
2022-11-24T22:40:37.694Z,100410.06
2022-11-24T22:43:09.959Z,100416.28
2022-11-24T22:45:39.545Z,100406.94
2022-11-24T22:48:09.444Z,100421.31
2022-11-24T22:50:39.389Z,100422.44
2022-11-24T22:53:08.909Z,100412.97
2022-11-24T22:55:38.528Z,100416.06
2022-11-24T22:58:10.903Z,100429.34
2022-11-24T23:00:40.558Z,100412.34
2022-11-24T23:03:10.103Z,100408.19
2022-11-24T23:05:39.640Z,100403.66
2022-11-24T23:08:09.250Z,100397.72
2022-11-24T23:10:38.904Z,100409.94
2022-11-24T23:13:11.146Z,100417.00
2022-11-24T23:15:41.168Z,100409.72
2022-11-24T23:18:10.795Z,100400.09
2022-11-24T23:20:40.365Z,100403.16
2022-11-24T23:23:09.963Z,100411.25
2022-11-24T23:25:39.479Z,100407.38
2022-11-24T23:28:11.784Z,100408.41
2022-11-24T23:30:41.262Z,100399.84
2022-11-24T23:33:10.862Z,100404.28
2022-11-24T23:35:40.408Z,100404.53
2022-11-24T23:38:09.938Z,100401.66
2022-11-24T23:40:39.538Z,100391.72
2022-11-24T23:43:11.660Z,100397.22
2022-11-24T23:45:41.258Z,100401.47
2022-11-24T23:48:11.297Z,100396.22
2022-11-24T23:50:40.821Z,100405.00
2022-11-24T23:53:10.369Z,100395.31
2022-11-24T23:55:39.941Z,100407.66
2022-11-24T23:58:12.125Z,100402.63
